sensor_id;sensor_type;location;lat;lon;timestamp;P1;durP1;ratioP1;P2;durP2;ratioP2
71759;SDS011;59919;48.112;16.280;2023-12-04T00:00:39;121.55;;;78.95;;
71759;SDS011;59919;48.112;16.280;2023-12-04T00:03:13;129.35;;;81.20;;
71759;SDS011;59919;48.112;16.280;2023-12-04T00:05:46;144.82;;;95.72;;
71759;SDS011;59919;48.112;16.280;2023-12-04T00:08:21;133.90;;;84.82;;
71759;SDS011;59919;48.112;16.280;2023-12-04T00:10:54;119.53;;;73.88;;
71759;SDS011;59919;48.112;16.280;2023-12-04T00:13:25;108.05;;;69.18;;
71759;SDS011;59919;48.112;16.280;2023-12-04T00:15:59;103.93;;;64.78;;
71759;SDS011;59919;48.112;16.280;2023-12-04T00:18:30;102.55;;;65.10;;
71759;SDS011;59919;48.112;16.280;2023-12-04T00:21:03;104.63;;;64.85;;
71759;SDS011;59919;48.112;16.280;2023-12-04T00:23:38;103.32;;;64.57;;
71759;SDS011;59919;48.112;16.280;2023-12-04T00:26:09;103.07;;;64.38;;
71759;SDS011;59919;48.112;16.280;2023-12-04T00:28:43;106.35;;;67.25;;
71759;SDS011;59919;48.112;16.280;2023-12-04T00:31:14;109.50;;;67.07;;
71759;SDS011;59919;48.112;16.280;2023-12-04T00:33:46;104.15;;;63.15;;
71759;SDS011;59919;48.112;16.280;2023-12-04T00:36:19;107.75;;;65.88;;
71759;SDS011;59919;48.112;16.280;2023-12-04T00:38:52;107.20;;;68.97;;
71759;SDS011;59919;48.112;16.280;2023-12-04T00:41:23;109.57;;;67.60;;
71759;SDS011;59919;48.112;16.280;2023-12-04T00:43:57;100.05;;;63.88;;
71759;SDS011;59919;48.112;16.280;2023-12-04T00:46:34;101.32;;;65.10;;
71759;SDS011;59919;48.112;16.280;2023-12-04T00:49:05;106.38;;;65.85;;
71759;SDS011;59919;48.112;16.280;2023-12-04T00:51:44;102.32;;;64.28;;
71759;SDS011;59919;48.112;16.280;2023-12-04T00:54:17;103.93;;;64.28;;
71759;SDS011;59919;48.112;16.280;2023-12-04T00:56:48;104.28;;;64.32;;
71759;SDS011;59919;48.112;16.280;2023-12-04T00:59:21;108.45;;;65.90;;
71759;SDS011;59919;48.112;16.280;2023-12-04T01:01:55;104.25;;;65.35;;
71759;SDS011;59919;48.112;16.280;2023-12-04T01:04:28;100.88;;;64.03;;
71759;SDS011;59919;48.112;16.280;2023-12-04T01:07:07;106.60;;;67.00;;
71759;SDS011;59919;48.112;16.280;2023-12-04T01:09:40;103.00;;;62.97;;
71759;SDS011;59919;48.112;16.280;2023-12-04T01:12:15;105.20;;;67.03;;
71759;SDS011;59919;48.112;16.280;2023-12-04T01:14:49;99.45;;;60.58;;
71759;SDS011;59919;48.112;16.280;2023-12-04T01:17:20;104.75;;;64.78;;
71759;SDS011;59919;48.112;16.280;2023-12-04T01:19:51;111.90;;;67.65;;
71759;SDS011;59919;48.112;16.280;2023-12-04T01:22:22;106.22;;;65.93;;
71759;SDS011;59919;48.112;16.280;2023-12-04T01:24:53;101.43;;;61.78;;
71759;SDS011;59919;48.112;16.280;2023-12-04T01:27:24;109.47;;;64.22;;
71759;SDS011;59919;48.112;16.280;2023-12-04T01:29:57;112.93;;;69.95;;
71759;SDS011;59919;48.112;16.280;2023-12-04T01:32:29;103.93;;;65.68;;
71759;SDS011;59919;48.112;16.280;2023-12-04T01:35:05;104.68;;;65.10;;
71759;SDS011;59919;48.112;16.280;2023-12-04T01:37:38;104.50;;;64.97;;
71759;SDS011;59919;48.112;16.280;2023-12-04T01:40:12;106.20;;;69.00;;
71759;SDS011;59919;48.112;16.280;2023-12-04T01:42:45;112.10;;;70.60;;
71759;SDS011;59919;48.112;16.280;2023-12-04T01:45:18;110.40;;;68.20;;
71759;SDS011;59919;48.112;16.280;2023-12-04T01:47:49;103.68;;;65.22;;
71759;SDS011;59919;48.112;16.280;2023-12-04T01:50:24;103.95;;;65.65;;
71759;SDS011;59919;48.112;16.280;2023-12-04T01:53:00;106.28;;;64.43;;
71759;SDS011;59919;48.112;16.280;2023-12-04T01:55:32;101.75;;;65.50;;
71759;SDS011;59919;48.112;16.280;2023-12-04T01:58:04;109.43;;;67.50;;
71759;SDS011;59919;48.112;16.280;2023-12-04T02:00:39;107.07;;;65.57;;
71759;SDS011;59919;48.112;16.280;2023-12-04T02:03:11;107.38;;;66.18;;
71759;SDS011;59919;48.112;16.280;2023-12-04T02:05:47;104.00;;;64.72;;
71759;SDS011;59919;48.112;16.280;2023-12-04T02:08:19;105.75;;;66.35;;
71759;SDS011;59919;48.112;16.280;2023-12-04T02:10:53;106.65;;;66.95;;
71759;SDS011;59919;48.112;16.280;2023-12-04T02:13:26;102.50;;;63.25;;
71759;SDS011;59919;48.112;16.280;2023-12-04T02:16:00;104.25;;;63.85;;
71759;SDS011;59919;48.112;16.280;2023-12-04T02:18:36;101.35;;;61.95;;
71759;SDS011;59919;48.112;16.280;2023-12-04T02:21:08;106.03;;;64.63;;
71759;SDS011;59919;48.112;16.280;2023-12-04T02:26:22;107.22;;;65.32;;
71759;SDS011;59919;48.112;16.280;2023-12-04T02:28:58;105.68;;;65.05;;
71759;SDS011;59919;48.112;16.280;2023-12-04T02:31:31;107.40;;;65.95;;
71759;SDS011;59919;48.112;16.280;2023-12-04T02:34:07;105.13;;;62.45;;
71759;SDS011;59919;48.112;16.280;2023-12-04T02:36:43;102.20;;;62.15;;
71759;SDS011;59919;48.112;16.280;2023-12-04T02:41:54;101.90;;;62.40;;
71759;SDS011;59919;48.112;16.280;2023-12-04T02:44:28;105.38;;;63.33;;
71759;SDS011;59919;48.112;16.280;2023-12-04T02:46:59;105.07;;;64.72;;
71759;SDS011;59919;48.112;16.280;2023-12-04T02:49:31;108.38;;;64.75;;
71759;SDS011;59919;48.112;16.280;2023-12-04T02:52:04;99.53;;;62.75;;
71759;SDS011;59919;48.112;16.280;2023-12-04T02:54:38;106.50;;;63.78;;
71759;SDS011;59919;48.112;16.280;2023-12-04T02:57:09;104.68;;;65.93;;
71759;SDS011;59919;48.112;16.280;2023-12-04T02:59:43;105.38;;;64.15;;
71759;SDS011;59919;48.112;16.280;2023-12-04T03:02:24;102.47;;;62.75;;
71759;SDS011;59919;48.112;16.280;2023-12-04T03:04:58;107.90;;;65.63;;
71759;SDS011;59919;48.112;16.280;2023-12-04T03:07:29;111.18;;;67.47;;
71759;SDS011;59919;48.112;16.280;2023-12-04T03:10:02;101.03;;;63.42;;
71759;SDS011;59919;48.112;16.280;2023-12-04T03:12:35;101.18;;;65.45;;
71759;SDS011;59919;48.112;16.280;2023-12-04T03:15:09;101.95;;;61.75;;
71759;SDS011;59919;48.112;16.280;2023-12-04T03:17:43;107.40;;;66.03;;
71759;SDS011;59919;48.112;16.280;2023-12-04T03:20:14;103.70;;;63.22;;
71759;SDS011;59919;48.112;16.280;2023-12-04T03:22:45;104.38;;;63.92;;
71759;SDS011;59919;48.112;16.280;2023-12-04T03:25:19;103.82;;;63.10;;
71759;SDS011;59919;48.112;16.280;2023-12-04T03:27:53;106.57;;;63.63;;
71759;SDS011;59919;48.112;16.280;2023-12-04T03:30:24;97.97;;;60.85;;
71759;SDS011;59919;48.112;16.280;2023-12-04T03:32:55;101.45;;;61.63;;
71759;SDS011;59919;48.112;16.280;2023-12-04T03:35:26;99.43;;;59.00;;
71759;SDS011;59919;48.112;16.280;2023-12-04T03:37:57;101.28;;;62.08;;
71759;SDS011;59919;48.112;16.280;2023-12-04T03:40:28;104.65;;;63.40;;
71759;SDS011;59919;48.112;16.280;2023-12-04T03:43:02;99.82;;;61.45;;
71759;SDS011;59919;48.112;16.280;2023-12-04T03:45:33;96.75;;;59.92;;
71759;SDS011;59919;48.112;16.280;2023-12-04T03:48:04;102.88;;;63.28;;
71759;SDS011;59919;48.112;16.280;2023-12-04T03:50:38;102.40;;;63.30;;
71759;SDS011;59919;48.112;16.280;2023-12-04T03:53:33;102.97;;;63.38;;
71759;SDS011;59919;48.112;16.280;2023-12-04T03:56:07;107.78;;;66.50;;
71759;SDS011;59919;48.112;16.280;2023-12-04T03:58:41;103.85;;;61.85;;
71759;SDS011;59919;48.112;16.280;2023-12-04T04:01:12;108.22;;;65.38;;
71759;SDS011;59919;48.112;16.280;2023-12-04T04:03:48;100.72;;;63.20;;
71759;SDS011;59919;48.112;16.280;2023-12-04T04:06:21;100.88;;;60.00;;
71759;SDS011;59919;48.112;16.280;2023-12-04T04:08:59;98.68;;;60.50;;
71759;SDS011;59919;48.112;16.280;2023-12-04T04:11:30;104.95;;;61.75;;
71759;SDS011;59919;48.112;16.280;2023-12-04T04:14:01;100.43;;;59.83;;
71759;SDS011;59919;48.112;16.280;2023-12-04T04:19:33;108.15;;;63.30;;
71759;SDS011;59919;48.112;16.280;2023-12-04T04:22:04;102.20;;;63.00;;
71759;SDS011;59919;48.112;16.280;2023-12-04T04:24:37;107.07;;;64.35;;
71759;SDS011;59919;48.112;16.280;2023-12-04T04:27:11;106.65;;;62.83;;
71759;SDS011;59919;48.112;16.280;2023-12-04T04:29:42;94.47;;;59.47;;
71759;SDS011;59919;48.112;16.280;2023-12-04T04:32:16;107.38;;;63.10;;
71759;SDS011;59919;48.112;16.280;2023-12-04T04:34:49;102.60;;;62.22;;
71759;SDS011;59919;48.112;16.280;2023-12-04T04:37:27;105.97;;;63.38;;
71759;SDS011;59919;48.112;16.280;2023-12-04T04:39:58;97.47;;;60.20;;
71759;SDS011;59919;48.112;16.280;2023-12-04T04:42:33;101.22;;;60.08;;
71759;SDS011;59919;48.112;16.280;2023-12-04T04:45:07;97.82;;;61.42;;
71759;SDS011;59919;48.112;16.280;2023-12-04T04:47:40;97.30;;;60.03;;
71759;SDS011;59919;48.112;16.280;2023-12-04T04:50:13;105.43;;;60.92;;
71759;SDS011;59919;48.112;16.280;2023-12-04T04:52:45;100.95;;;59.65;;
71759;SDS011;59919;48.112;16.280;2023-12-04T04:55:19;98.50;;;59.35;;
71759;SDS011;59919;48.112;16.280;2023-12-04T04:57:52;98.97;;;59.45;;
71759;SDS011;59919;48.112;16.280;2023-12-04T05:00:28;96.20;;;58.15;;
71759;SDS011;59919;48.112;16.280;2023-12-04T05:03:04;97.78;;;57.38;;
71759;SDS011;59919;48.112;16.280;2023-12-04T05:05:38;101.55;;;61.33;;
71759;SDS011;59919;48.112;16.280;2023-12-04T05:08:09;94.32;;;58.88;;
71759;SDS011;59919;48.112;16.280;2023-12-04T05:10:40;94.30;;;57.58;;
71759;SDS011;59919;48.112;16.280;2023-12-04T05:13:15;103.68;;;60.80;;
71759;SDS011;59919;48.112;16.280;2023-12-04T05:15:46;97.13;;;57.65;;
71759;SDS011;59919;48.112;16.280;2023-12-04T05:18:20;97.03;;;59.00;;
71759;SDS011;59919;48.112;16.280;2023-12-04T05:20:51;98.93;;;56.33;;
71759;SDS011;59919;48.112;16.280;2023-12-04T05:23:23;88.78;;;52.40;;
71759;SDS011;59919;48.112;16.280;2023-12-04T05:25:54;95.65;;;57.10;;
71759;SDS011;59919;48.112;16.280;2023-12-04T05:28:25;96.22;;;57.22;;
71759;SDS011;59919;48.112;16.280;2023-12-04T05:30:59;99.72;;;60.38;;
71759;SDS011;59919;48.112;16.280;2023-12-04T05:33:30;100.55;;;60.55;;
71759;SDS011;59919;48.112;16.280;2023-12-04T05:36:04;103.15;;;61.22;;
71759;SDS011;59919;48.112;16.280;2023-12-04T05:38:35;106.32;;;62.22;;
71759;SDS011;59919;48.112;16.280;2023-12-04T05:41:06;95.80;;;55.45;;
71759;SDS011;59919;48.112;16.280;2023-12-04T05:43:38;87.43;;;49.35;;
71759;SDS011;59919;48.112;16.280;2023-12-04T05:46:09;90.50;;;52.83;;
71759;SDS011;59919;48.112;16.280;2023-12-04T05:48:42;97.10;;;55.35;;
71759;SDS011;59919;48.112;16.280;2023-12-04T05:51:17;107.75;;;63.83;;
71759;SDS011;59919;48.112;16.280;2023-12-04T05:53:50;102.57;;;61.60;;
71759;SDS011;59919;48.112;16.280;2023-12-04T05:56:30;105.60;;;59.45;;
71759;SDS011;59919;48.112;16.280;2023-12-04T05:59:05;101.55;;;58.90;;
71759;SDS011;59919;48.112;16.280;2023-12-04T06:01:36;100.95;;;59.33;;
71759;SDS011;59919;48.112;16.280;2023-12-04T06:04:09;101.07;;;59.83;;
71759;SDS011;59919;48.112;16.280;2023-12-04T06:06:45;100.50;;;61.78;;
71759;SDS011;59919;48.112;16.280;2023-12-04T06:09:16;106.65;;;60.83;;
71759;SDS011;59919;48.112;16.280;2023-12-04T06:11:47;121.35;;;69.15;;
71759;SDS011;59919;48.112;16.280;2023-12-04T06:14:18;107.60;;;61.58;;
71759;SDS011;59919;48.112;16.280;2023-12-04T06:16:49;102.40;;;61.30;;
71759;SDS011;59919;48.112;16.280;2023-12-04T06:19:20;112.18;;;64.35;;
71759;SDS011;59919;48.112;16.280;2023-12-04T06:21:51;112.97;;;69.47;;
71759;SDS011;59919;48.112;16.280;2023-12-04T06:24:26;119.00;;;70.18;;
71759;SDS011;59919;48.112;16.280;2023-12-04T06:26:59;106.35;;;65.07;;
71759;SDS011;59919;48.112;16.280;2023-12-04T06:29:30;114.07;;;68.13;;
71759;SDS011;59919;48.112;16.280;2023-12-04T06:32:02;101.55;;;60.45;;
71759;SDS011;59919;48.112;16.280;2023-12-04T06:34:35;116.35;;;65.20;;
71759;SDS011;59919;48.112;16.280;2023-12-04T06:37:10;115.95;;;71.68;;
71759;SDS011;59919;48.112;16.280;2023-12-04T06:39:45;124.50;;;76.00;;
71759;SDS011;59919;48.112;16.280;2023-12-04T06:44:53;110.72;;;64.13;;
71759;SDS011;59919;48.112;16.280;2023-12-04T06:47:27;116.30;;;69.43;;
71759;SDS011;59919;48.112;16.280;2023-12-04T06:50:02;123.00;;;74.07;;
71759;SDS011;59919;48.112;16.280;2023-12-04T06:52:36;137.80;;;79.03;;
71759;SDS011;59919;48.112;16.280;2023-12-04T06:55:07;142.73;;;88.32;;
71759;SDS011;59919;48.112;16.280;2023-12-04T06:57:40;130.80;;;80.78;;
71759;SDS011;59919;48.112;16.280;2023-12-04T07:00:12;134.57;;;81.68;;
71759;SDS011;59919;48.112;16.280;2023-12-04T07:02:45;128.95;;;78.88;;
71759;SDS011;59919;48.112;16.280;2023-12-04T07:05:17;130.68;;;82.05;;
71759;SDS011;59919;48.112;16.280;2023-12-04T07:07:50;141.55;;;86.28;;
71759;SDS011;59919;48.112;16.280;2023-12-04T07:10:23;146.07;;;92.40;;
71759;SDS011;59919;48.112;16.280;2023-12-04T07:12:54;157.20;;;96.72;;
71759;SDS011;59919;48.112;16.280;2023-12-04T07:15:25;151.20;;;93.68;;
71759;SDS011;59919;48.112;16.280;2023-12-04T07:17:56;154.52;;;100.03;;
71759;SDS011;59919;48.112;16.280;2023-12-04T07:20:32;154.95;;;96.70;;
71759;SDS011;59919;48.112;16.280;2023-12-04T07:23:03;148.70;;;92.68;;
71759;SDS011;59919;48.112;16.280;2023-12-04T07:25:34;159.45;;;98.13;;
71759;SDS011;59919;48.112;16.280;2023-12-04T07:28:06;149.45;;;92.43;;
71759;SDS011;59919;48.112;16.280;2023-12-04T07:30:40;145.85;;;91.75;;
71759;SDS011;59919;48.112;16.280;2023-12-04T07:33:11;151.32;;;99.32;;
71759;SDS011;59919;48.112;16.280;2023-12-04T07:35:42;153.80;;;98.20;;
71759;SDS011;59919;48.112;16.280;2023-12-04T07:38:18;147.30;;;91.93;;
71759;SDS011;59919;48.112;16.280;2023-12-04T07:40:53;156.13;;;98.78;;
71759;SDS011;59919;48.112;16.280;2023-12-04T07:43:27;158.38;;;99.75;;
71759;SDS011;59919;48.112;16.280;2023-12-04T07:45:58;157.95;;;99.22;;
71759;SDS011;59919;48.112;16.280;2023-12-04T07:48:30;164.43;;;105.10;;
71759;SDS011;59919;48.112;16.280;2023-12-04T07:51:01;160.13;;;102.47;;
71759;SDS011;59919;48.112;16.280;2023-12-04T07:53:33;160.57;;;101.68;;
71759;SDS011;59919;48.112;16.280;2023-12-04T07:56:04;162.45;;;101.40;;
71759;SDS011;59919;48.112;16.280;2023-12-04T07:58:35;163.43;;;104.80;;
71759;SDS011;59919;48.112;16.280;2023-12-04T08:01:09;156.52;;;102.18;;
71759;SDS011;59919;48.112;16.280;2023-12-04T08:03:40;164.13;;;103.85;;
71759;SDS011;59919;48.112;16.280;2023-12-04T08:06:11;156.48;;;102.10;;
71759;SDS011;59919;48.112;16.280;2023-12-04T08:08:43;178.35;;;115.40;;
71759;SDS011;59919;48.112;16.280;2023-12-04T08:11:17;165.45;;;104.97;;
71759;SDS011;59919;48.112;16.280;2023-12-04T08:13:48;164.18;;;105.18;;
71759;SDS011;59919;48.112;16.280;2023-12-04T08:16:22;166.93;;;107.22;;
71759;SDS011;59919;48.112;16.280;2023-12-04T08:18:54;164.80;;;108.35;;
71759;SDS011;59919;48.112;16.280;2023-12-04T08:21:28;175.63;;;108.88;;
71759;SDS011;59919;48.112;16.280;2023-12-04T08:23:59;166.70;;;108.70;;
71759;SDS011;59919;48.112;16.280;2023-12-04T08:26:30;170.27;;;109.72;;
71759;SDS011;59919;48.112;16.280;2023-12-04T08:29:04;165.43;;;108.93;;
71759;SDS011;59919;48.112;16.280;2023-12-04T08:31:37;185.00;;;117.53;;
71759;SDS011;59919;48.112;16.280;2023-12-04T08:34:11;179.82;;;117.50;;
71759;SDS011;59919;48.112;16.280;2023-12-04T08:36:43;187.98;;;119.57;;
71759;SDS011;59919;48.112;16.280;2023-12-04T08:39:17;180.85;;;116.65;;
71759;SDS011;59919;48.112;16.280;2023-12-04T08:41:50;185.07;;;119.47;;
71759;SDS011;59919;48.112;16.280;2023-12-04T08:44:26;179.82;;;115.60;;
71759;SDS011;59919;48.112;16.280;2023-12-04T08:46:57;179.70;;;115.57;;
71759;SDS011;59919;48.112;16.280;2023-12-04T08:49:30;184.82;;;119.38;;
71759;SDS011;59919;48.112;16.280;2023-12-04T08:52:01;175.27;;;112.25;;
71759;SDS011;59919;48.112;16.280;2023-12-04T08:54:33;180.90;;;115.78;;
71759;SDS011;59919;48.112;16.280;2023-12-04T08:57:08;190.98;;;123.20;;
71759;SDS011;59919;48.112;16.280;2023-12-04T08:59:40;187.63;;;121.32;;
71759;SDS011;59919;48.112;16.280;2023-12-04T09:02:11;183.20;;;120.82;;
71759;SDS011;59919;48.112;16.280;2023-12-04T09:04:44;185.85;;;121.53;;
71759;SDS011;59919;48.112;16.280;2023-12-04T09:07:17;180.93;;;118.10;;
71759;SDS011;59919;48.112;16.280;2023-12-04T09:09:49;193.90;;;122.82;;
71759;SDS011;59919;48.112;16.280;2023-12-04T09:12:24;186.27;;;122.13;;
71759;SDS011;59919;48.112;16.280;2023-12-04T09:15:00;192.95;;;122.85;;
71759;SDS011;59919;48.112;16.280;2023-12-04T09:17:32;187.52;;;122.93;;
71759;SDS011;59919;48.112;16.280;2023-12-04T09:20:07;186.70;;;122.43;;
71759;SDS011;59919;48.112;16.280;2023-12-04T09:22:42;198.48;;;128.40;;
71759;SDS011;59919;48.112;16.280;2023-12-04T09:25:13;187.98;;;126.50;;
71759;SDS011;59919;48.112;16.280;2023-12-04T09:27:47;192.65;;;126.38;;
71759;SDS011;59919;48.112;16.280;2023-12-04T09:30:18;196.95;;;125.60;;
71759;SDS011;59919;48.112;16.280;2023-12-04T09:32:50;196.60;;;129.27;;
71759;SDS011;59919;48.112;16.280;2023-12-04T09:35:21;195.77;;;127.07;;
71759;SDS011;59919;48.112;16.280;2023-12-04T09:37:54;207.75;;;133.88;;
71759;SDS011;59919;48.112;16.280;2023-12-04T09:40:30;191.80;;;123.88;;
71759;SDS011;59919;48.112;16.280;2023-12-04T09:43:05;183.73;;;120.03;;
71759;SDS011;59919;48.112;16.280;2023-12-04T09:48:27;180.90;;;119.43;;
71759;SDS011;59919;48.112;16.280;2023-12-04T09:50:59;175.05;;;115.32;;
71759;SDS011;59919;48.112;16.280;2023-12-04T09:53:31;175.73;;;116.55;;
71759;SDS011;59919;48.112;16.280;2023-12-04T09:56:03;184.18;;;120.95;;
71759;SDS011;59919;48.112;16.280;2023-12-04T09:58:39;186.23;;;123.28;;
71759;SDS011;59919;48.112;16.280;2023-12-04T10:01:11;196.88;;;128.48;;
71759;SDS011;59919;48.112;16.280;2023-12-04T10:03:42;204.43;;;129.25;;
71759;SDS011;59919;48.112;16.280;2023-12-04T10:06:17;185.45;;;123.55;;
71759;SDS011;59919;48.112;16.280;2023-12-04T10:08:50;194.00;;;129.98;;
71759;SDS011;59919;48.112;16.280;2023-12-04T10:11:23;191.20;;;126.45;;
71759;SDS011;59919;48.112;16.280;2023-12-04T10:13:55;200.98;;;132.55;;
71759;SDS011;59919;48.112;16.280;2023-12-04T10:16:34;201.00;;;127.53;;
71759;SDS011;59919;48.112;16.280;2023-12-04T10:19:25;203.20;;;130.73;;
71759;SDS011;59919;48.112;16.280;2023-12-04T10:21:58;210.13;;;132.32;;
71759;SDS011;59919;48.112;16.280;2023-12-04T10:24:32;202.18;;;131.95;;
71759;SDS011;59919;48.112;16.280;2023-12-04T10:27:05;197.60;;;129.52;;
71759;SDS011;59919;48.112;16.280;2023-12-04T10:29:43;208.93;;;133.13;;
71759;SDS011;59919;48.112;16.280;2023-12-04T10:32:18;201.75;;;131.00;;
71759;SDS011;59919;48.112;16.280;2023-12-04T10:34:52;202.80;;;133.43;;
71759;SDS011;59919;48.112;16.280;2023-12-04T10:37:25;198.50;;;128.98;;
71759;SDS011;59919;48.112;16.280;2023-12-04T10:40:00;204.68;;;133.23;;
71759;SDS011;59919;48.112;16.280;2023-12-04T10:42:32;207.13;;;134.02;;
71759;SDS011;59919;48.112;16.280;2023-12-04T10:45:03;213.50;;;136.98;;
71759;SDS011;59919;48.112;16.280;2023-12-04T10:47:36;207.88;;;135.15;;
71759;SDS011;59919;48.112;16.280;2023-12-04T10:50:09;213.75;;;137.90;;
71759;SDS011;59919;48.112;16.280;2023-12-04T10:52:42;210.55;;;139.68;;
71759;SDS011;59919;48.112;16.280;2023-12-04T10:55:19;215.32;;;140.00;;
71759;SDS011;59919;48.112;16.280;2023-12-04T10:57:53;209.60;;;137.80;;
71759;SDS011;59919;48.112;16.280;2023-12-04T11:00:25;243.02;;;144.13;;
71759;SDS011;59919;48.112;16.280;2023-12-04T11:03:03;225.80;;;140.25;;
71759;SDS011;59919;48.112;16.280;2023-12-04T11:05:43;213.35;;;139.75;;
71759;SDS011;59919;48.112;16.280;2023-12-04T11:08:17;222.98;;;142.63;;
71759;SDS011;59919;48.112;16.280;2023-12-04T11:10:52;223.30;;;145.32;;
71759;SDS011;59919;48.112;16.280;2023-12-04T11:13:39;216.05;;;140.23;;
71759;SDS011;59919;48.112;16.280;2023-12-04T11:16:28;229.27;;;147.75;;
71759;SDS011;59919;48.112;16.280;2023-12-04T11:19:10;213.10;;;139.63;;
71759;SDS011;59919;48.112;16.280;2023-12-04T11:21:49;224.85;;;142.60;;
71759;SDS011;59919;48.112;16.280;2023-12-04T11:24:20;229.43;;;150.40;;
71759;SDS011;59919;48.112;16.280;2023-12-04T11:26:52;224.88;;;144.95;;
71759;SDS011;59919;48.112;16.280;2023-12-04T11:29:24;230.30;;;147.18;;
71759;SDS011;59919;48.112;16.280;2023-12-04T11:31:56;225.75;;;145.20;;
71759;SDS011;59919;48.112;16.280;2023-12-04T11:34:27;229.23;;;149.32;;
71759;SDS011;59919;48.112;16.280;2023-12-04T11:37:00;222.13;;;144.57;;
71759;SDS011;59919;48.112;16.280;2023-12-04T11:39:33;230.30;;;151.00;;
71759;SDS011;59919;48.112;16.280;2023-12-04T11:42:09;235.43;;;154.88;;
71759;SDS011;59919;48.112;16.280;2023-12-04T11:44:41;230.35;;;151.15;;
71759;SDS011;59919;48.112;16.280;2023-12-04T11:47:13;225.35;;;147.50;;
71759;SDS011;59919;48.112;16.280;2023-12-04T11:49:44;236.10;;;156.27;;
71759;SDS011;59919;48.112;16.280;2023-12-04T11:52:15;234.82;;;150.25;;
71759;SDS011;59919;48.112;16.280;2023-12-04T11:54:58;231.70;;;151.95;;
71759;SDS011;59919;48.112;16.280;2023-12-04T12:05:32;232.27;;;151.52;;
71759;SDS011;59919;48.112;16.280;2023-12-04T12:08:09;241.23;;;149.18;;
71759;SDS011;59919;48.112;16.280;2023-12-04T12:10:41;221.13;;;149.73;;
71759;SDS011;59919;48.112;16.280;2023-12-04T12:13:17;237.48;;;150.60;;
71759;SDS011;59919;48.112;16.280;2023-12-04T12:15:52;232.48;;;151.50;;
71759;SDS011;59919;48.112;16.280;2023-12-04T12:18:25;229.30;;;147.05;;
71759;SDS011;59919;48.112;16.280;2023-12-04T12:21:02;239.00;;;156.43;;
71759;SDS011;59919;48.112;16.280;2023-12-04T12:23:36;241.40;;;157.50;;
71759;SDS011;59919;48.112;16.280;2023-12-04T12:26:11;229.18;;;150.50;;
71759;SDS011;59919;48.112;16.280;2023-12-04T12:28:52;236.98;;;152.10;;
71759;SDS011;59919;48.112;16.280;2023-12-04T12:31:28;231.57;;;153.75;;
71759;SDS011;59919;48.112;16.280;2023-12-04T12:33:59;228.27;;;155.13;;
71759;SDS011;59919;48.112;16.280;2023-12-04T12:36:33;248.38;;;157.98;;
71759;SDS011;59919;48.112;16.280;2023-12-04T12:39:08;239.15;;;158.38;;
71759;SDS011;59919;48.112;16.280;2023-12-04T12:41:39;236.23;;;154.57;;
71759;SDS011;59919;48.112;16.280;2023-12-04T12:44:19;244.32;;;156.45;;
71759;SDS011;59919;48.112;16.280;2023-12-04T12:46:51;231.93;;;154.27;;
71759;SDS011;59919;48.112;16.280;2023-12-04T12:49:22;246.13;;;156.40;;
71759;SDS011;59919;48.112;16.280;2023-12-04T12:51:56;241.05;;;158.85;;
71759;SDS011;59919;48.112;16.280;2023-12-04T12:54:33;234.10;;;150.88;;
71759;SDS011;59919;48.112;16.280;2023-12-04T12:57:04;227.30;;;148.77;;
71759;SDS011;59919;48.112;16.280;2023-12-04T12:59:36;234.30;;;150.23;;
71759;SDS011;59919;48.112;16.280;2023-12-04T13:02:11;229.43;;;148.80;;
71759;SDS011;59919;48.112;16.280;2023-12-04T13:04:43;234.35;;;149.98;;
71759;SDS011;59919;48.112;16.280;2023-12-04T13:07:17;233.57;;;153.05;;
71759;SDS011;59919;48.112;16.280;2023-12-04T13:09:49;236.75;;;150.38;;
71759;SDS011;59919;48.112;16.280;2023-12-04T13:12:23;245.23;;;159.85;;
71759;SDS011;59919;48.112;16.280;2023-12-04T13:14:57;237.45;;;154.85;;
71759;SDS011;59919;48.112;16.280;2023-12-04T13:17:29;240.27;;;159.43;;
71759;SDS011;59919;48.112;16.280;2023-12-04T13:20:02;234.25;;;156.45;;
71759;SDS011;59919;48.112;16.280;2023-12-04T13:22:35;244.43;;;161.00;;
71759;SDS011;59919;48.112;16.280;2023-12-04T13:25:06;248.32;;;165.43;;
71759;SDS011;59919;48.112;16.280;2023-12-04T13:27:39;243.23;;;162.02;;
71759;SDS011;59919;48.112;16.280;2023-12-04T13:30:10;243.45;;;160.80;;
71759;SDS011;59919;48.112;16.280;2023-12-04T13:32:42;248.00;;;161.02;;
71759;SDS011;59919;48.112;16.280;2023-12-04T13:35:15;240.05;;;159.73;;
71759;SDS011;59919;48.112;16.280;2023-12-04T13:37:47;244.88;;;160.80;;
71759;SDS011;59919;48.112;16.280;2023-12-04T13:40:25;239.95;;;162.70;;
71759;SDS011;59919;48.112;16.280;2023-12-04T13:43:02;241.85;;;165.50;;
71759;SDS011;59919;48.112;16.280;2023-12-04T13:45:52;239.80;;;161.05;;
71759;SDS011;59919;48.112;16.280;2023-12-04T13:48:24;241.85;;;161.60;;
71759;SDS011;59919;48.112;16.280;2023-12-04T13:50:55;247.63;;;167.68;;
71759;SDS011;59919;48.112;16.280;2023-12-04T13:53:26;244.25;;;166.27;;
71759;SDS011;59919;48.112;16.280;2023-12-04T13:56:01;250.05;;;165.45;;
71759;SDS011;59919;48.112;16.280;2023-12-04T13:58:32;245.63;;;163.23;;
71759;SDS011;59919;48.112;16.280;2023-12-04T14:01:13;244.55;;;161.68;;
71759;SDS011;59919;48.112;16.280;2023-12-04T14:03:44;247.93;;;165.60;;
71759;SDS011;59919;48.112;16.280;2023-12-04T14:06:15;255.98;;;172.25;;
71759;SDS011;59919;48.112;16.280;2023-12-04T14:08:50;250.55;;;165.48;;
71759;SDS011;59919;48.112;16.280;2023-12-04T14:11:21;240.85;;;161.15;;
71759;SDS011;59919;48.112;16.280;2023-12-04T14:13:53;255.10;;;174.07;;
71759;SDS011;59919;48.112;16.280;2023-12-04T14:16:24;252.43;;;170.02;;
71759;SDS011;59919;48.112;16.280;2023-12-04T14:18:58;251.13;;;168.68;;
71759;SDS011;59919;48.112;16.280;2023-12-04T14:21:29;252.38;;;170.70;;
71759;SDS011;59919;48.112;16.280;2023-12-04T14:24:03;246.52;;;166.57;;
71759;SDS011;59919;48.112;16.280;2023-12-04T14:29:11;260.38;;;172.82;;
71759;SDS011;59919;48.112;16.280;2023-12-04T14:31:43;264.17;;;174.27;;
71759;SDS011;59919;48.112;16.280;2023-12-04T14:34:15;256.33;;;175.25;;
71759;SDS011;59919;48.112;16.280;2023-12-04T14:36:46;251.07;;;171.02;;
71759;SDS011;59919;48.112;16.280;2023-12-04T14:39:17;253.45;;;176.70;;
71759;SDS011;59919;48.112;16.280;2023-12-04T14:41:49;266.65;;;178.25;;
71759;SDS011;59919;48.112;16.280;2023-12-04T14:44:20;266.05;;;175.57;;
71759;SDS011;59919;48.112;16.280;2023-12-04T14:46:51;254.00;;;177.10;;
71759;SDS011;59919;48.112;16.280;2023-12-04T14:49:22;257.02;;;176.20;;